createdAt,value
2022-09-22T00:01:13.102Z,92.34
2022-09-22T00:03:43.065Z,92.22
2022-09-22T00:06:13.171Z,92.33
2022-09-22T00:08:42.521Z,92.39
2022-09-22T00:11:17.132Z,92.01
2022-09-22T00:13:47.043Z,92.36
2022-09-22T00:16:14.380Z,93.17
2022-09-22T00:18:41.188Z,94.13
2022-09-22T00:21:13.540Z,94.65
2022-09-22T00:23:42.511Z,94.60
2022-09-22T00:26:11.827Z,94.28
2022-09-22T00:28:39.485Z,93.37
2022-09-22T00:31:08.241Z,93.39
2022-09-22T00:33:35.597Z,93.35
2022-09-22T00:36:03.297Z,93.01
2022-09-22T00:38:30.709Z,92.97
2022-09-22T00:40:57.432Z,92.25
2022-09-22T00:43:27.094Z,93.56
2022-09-22T00:45:59.265Z,93.73
2022-09-22T00:48:28.983Z,93.00
2022-09-22T00:50:57.723Z,93.34
2022-09-22T00:53:25.152Z,92.89
2022-09-22T00:55:58.164Z,92.44
2022-09-22T00:58:37.532Z,91.85
2022-09-22T01:01:04.462Z,91.93
2022-09-22T01:03:31.304Z,91.71
2022-09-22T01:06:02.905Z,91.52
2022-09-22T01:08:31.360Z,91.60
2022-09-22T01:10:59.496Z,91.45
2022-09-22T01:13:50.031Z,91.44
2022-09-22T01:16:25.544Z,92.25
2022-09-22T01:19:11.676Z,92.46
2022-09-22T01:21:46.620Z,92.57
2022-09-22T01:24:42.271Z,92.51
2022-09-22T01:27:59.454Z,92.40
2022-09-22T01:30:36.609Z,91.52
2022-09-22T01:33:23.150Z,91.98
2022-09-22T01:36:02.840Z,91.29
2022-09-22T01:39:10.269Z,91.45
2022-09-22T01:41:51.833Z,90.81
2022-09-22T01:44:27.144Z,91.27
2022-09-22T01:47:00.075Z,91.47
2022-09-22T01:49:29.889Z,91.62
2022-09-22T01:52:00.684Z,91.24
2022-09-22T01:54:39.651Z,91.58
2022-09-22T01:57:17.887Z,91.58
2022-09-22T01:59:51.155Z,91.91
2022-09-22T02:02:28.550Z,91.95
2022-09-22T02:04:59.344Z,92.33
2022-09-22T02:07:40.096Z,92.90
2022-09-22T02:10:12.804Z,93.24
2022-09-22T02:12:39.294Z,93.68
2022-09-22T02:15:27.049Z,93.80
2022-09-22T02:18:01.031Z,94.36
2022-09-22T02:20:28.138Z,94.29
2022-09-22T02:22:54.850Z,94.44
2022-09-22T02:25:23.654Z,94.29
2022-09-22T02:27:53.490Z,95.04
2022-09-22T02:30:20.113Z,95.71
2022-09-22T02:32:50.110Z,95.77
2022-09-22T02:35:17.303Z,96.36
2022-09-22T02:37:51.129Z,97.25
2022-09-22T02:40:48.288Z,97.04
2022-09-22T02:43:32.079Z,97.50
2022-09-22T02:46:17.210Z,97.24
2022-09-22T02:48:51.356Z,97.05
2022-09-22T02:51:18.707Z,97.04
2022-09-22T02:53:45.232Z,97.81
2022-09-22T02:56:11.761Z,98.78
2022-09-22T02:58:38.184Z,98.06
2022-09-22T03:01:04.790Z,97.83
2022-09-22T03:03:31.985Z,96.94
2022-09-22T03:05:58.393Z,97.06
2022-09-22T03:08:24.926Z,97.21
2022-09-22T03:10:51.377Z,97.46
2022-09-22T03:13:17.839Z,97.24
2022-09-22T03:15:45.453Z,97.15
2022-09-22T03:18:12.357Z,97.13
2022-09-22T03:20:38.905Z,97.24
2022-09-22T03:23:05.589Z,97.27
2022-09-22T03:25:32.216Z,97.40
2022-09-22T03:27:58.624Z,97.28
2022-09-22T03:30:25.145Z,96.93
2022-09-22T03:32:51.555Z,97.02
2022-09-22T03:35:17.989Z,97.08
2022-09-22T03:37:46.248Z,96.93
2022-09-22T03:40:13.146Z,97.90
2022-09-22T03:42:39.551Z,98.45
2022-09-22T03:45:06.289Z,100.00
2022-09-22T03:47:32.743Z,100.00
2022-09-22T03:49:59.156Z,100.00
2022-09-22T03:52:25.866Z,100.00
2022-09-22T03:54:52.890Z,100.00
2022-09-22T03:57:19.321Z,100.00
2022-09-22T03:59:45.756Z,99.85
2022-09-22T04:02:14.044Z,99.93
2022-09-22T04:04:40.639Z,100.00
2022-09-22T04:07:07.705Z,100.00
2022-09-22T04:09:34.824Z,100.00
2022-09-22T04:12:01.582Z,99.59
2022-09-22T04:14:28.012Z,98.97
2022-09-22T04:16:54.538Z,98.29
2022-09-22T04:19:21.050Z,98.84
2022-09-22T04:21:47.436Z,99.51
2022-09-22T04:24:13.921Z,99.66
2022-09-22T04:26:51.755Z,98.88
2022-09-22T04:29:27.192Z,99.60
2022-09-22T04:31:53.635Z,99.51
2022-09-22T04:34:20.101Z,99.23
2022-09-22T04:36:46.481Z,99.27
2022-09-22T04:39:12.891Z,99.22
2022-09-22T04:41:39.277Z,98.60
2022-09-22T04:44:05.691Z,98.77
2022-09-22T04:46:32.149Z,99.12
2022-09-22T04:48:58.653Z,99.22
2022-09-22T04:51:25.091Z,99.45
2022-09-22T04:53:51.688Z,99.76
2022-09-22T04:56:18.082Z,99.66
2022-09-22T04:58:44.524Z,99.88
2022-09-22T05:01:11.235Z,99.68
2022-09-22T05:03:38.948Z,99.99
2022-09-22T05:06:06.769Z,100.00
2022-09-22T05:08:33.520Z,100.00
2022-09-22T05:10:59.938Z,100.00
2022-09-22T05:13:26.852Z,100.00
2022-09-22T05:15:53.280Z,100.00
2022-09-22T05:18:20.665Z,100.00
2022-09-22T05:20:47.516Z,100.00
2022-09-22T05:23:13.952Z,100.00
2022-09-22T05:25:40.428Z,100.00
2022-09-22T05:28:06.897Z,100.00
2022-09-22T05:30:34.129Z,100.00
2022-09-22T05:33:00.543Z,100.00
2022-09-22T05:35:26.978Z,100.00
2022-09-22T05:37:53.844Z,100.00
2022-09-22T05:40:23.642Z,100.00
2022-09-22T05:42:51.637Z,100.00
2022-09-22T05:45:19.587Z,100.00
2022-09-22T05:47:46.552Z,100.00
2022-09-22T05:50:14.910Z,100.00
2022-09-22T05:52:41.469Z,100.00
2022-09-22T05:55:10.219Z,100.00
2022-09-22T05:57:36.657Z,100.00
2022-09-22T06:00:08.031Z,100.00
2022-09-22T06:02:34.580Z,100.00
2022-09-22T06:05:01.074Z,100.00
2022-09-22T06:07:27.693Z,100.00
2022-09-22T06:09:54.145Z,100.00
2022-09-22T06:12:20.625Z,100.00
2022-09-22T06:14:47.072Z,100.00
2022-09-22T06:17:13.561Z,100.00
2022-09-22T06:19:40.415Z,100.00
2022-09-22T06:22:08.628Z,100.00
2022-09-22T06:24:35.052Z,100.00
2022-09-22T06:27:01.539Z,100.00
2022-09-22T06:29:28.354Z,100.00
2022-09-22T06:31:54.859Z,100.00
2022-09-22T06:34:21.395Z,100.00
2022-09-22T06:36:47.834Z,100.00
2022-09-22T06:39:14.841Z,100.00
2022-09-22T06:41:41.256Z,100.00
2022-09-22T06:44:08.989Z,100.00
2022-09-22T06:46:35.576Z,100.00
2022-09-22T06:49:02.523Z,100.00
2022-09-22T06:51:32.872Z,100.00
2022-09-22T06:54:04.914Z,100.00
2022-09-22T06:56:37.881Z,100.00
2022-09-22T06:59:10.912Z,100.00
2022-09-22T07:01:38.318Z,100.00
2022-09-22T07:04:04.943Z,100.00
2022-09-22T07:06:31.516Z,100.00
2022-09-22T07:08:58.008Z,100.00
2022-09-22T07:11:24.776Z,100.00
2022-09-22T07:13:53.322Z,100.00
2022-09-22T07:16:24.235Z,100.00
2022-09-22T07:18:56.207Z,100.00
2022-09-22T07:21:27.147Z,100.00
2022-09-22T07:23:55.316Z,100.00
2022-09-22T07:26:26.445Z,100.00
2022-09-22T07:28:54.114Z,100.00
2022-09-22T07:31:26.267Z,100.00
2022-09-22T07:33:55.621Z,100.00
2022-09-22T07:36:26.005Z,100.00
2022-09-22T07:38:54.557Z,100.00
2022-09-22T07:41:23.706Z,100.00
2022-09-22T07:43:52.734Z,99.90
2022-09-22T07:46:20.185Z,99.95
2022-09-22T07:48:47.833Z,100.00
2022-09-22T07:51:21.438Z,99.41
2022-09-22T07:54:02.463Z,98.55
2022-09-22T07:56:30.984Z,97.32
2022-09-22T07:58:57.720Z,98.28
2022-09-22T08:01:26.327Z,98.21
2022-09-22T08:03:52.747Z,97.93
2022-09-22T08:06:23.608Z,97.64
2022-09-22T08:08:55.236Z,97.69
2022-09-22T08:11:24.970Z,97.58
2022-09-22T08:13:57.064Z,97.22
2022-09-22T08:16:28.168Z,96.89
2022-09-22T08:18:56.451Z,96.68
2022-09-22T08:21:27.296Z,96.30
2022-09-22T08:23:54.375Z,96.37
2022-09-22T08:26:21.283Z,95.95
2022-09-22T08:28:52.665Z,95.38
2022-09-22T08:31:20.736Z,94.81
2022-09-22T08:33:49.163Z,95.37
2022-09-22T08:36:16.428Z,95.63
2022-09-22T08:38:43.625Z,95.27
2022-09-22T08:41:21.421Z,94.74
2022-09-22T08:43:57.385Z,94.73
2022-09-22T08:46:44.979Z,94.73
2022-09-22T08:49:54.834Z,91.65
2022-09-22T08:52:35.466Z,89.81
2022-09-22T08:55:03.229Z,88.90
2022-09-22T08:57:41.236Z,87.17
2022-09-22T09:00:15.549Z,86.96
2022-09-22T09:03:09.724Z,85.63
2022-09-22T09:06:12.164Z,85.24
2022-09-22T09:08:47.666Z,84.41
2022-09-22T09:14:11.860Z,78.03
2022-09-22T09:16:56.988Z,77.44
2022-09-22T09:19:44.268Z,73.96
2022-09-22T09:22:25.311Z,74.21
2022-09-22T09:25:23.942Z,70.49
2022-09-22T09:28:27.530Z,74.65
2022-09-22T09:31:05.904Z,73.97
2022-09-22T09:33:52.595Z,74.64
2022-09-22T09:36:22.711Z,72.91
2022-09-22T09:38:54.693Z,71.54
2022-09-22T09:41:31.269Z,71.19
2022-09-22T09:43:59.331Z,69.17
2022-09-22T09:46:44.007Z,66.49
2022-09-22T09:49:17.518Z,67.17
2022-09-22T09:51:50.642Z,67.29
2022-09-22T09:54:18.986Z,67.62
2022-09-22T09:57:02.924Z,63.18
2022-09-22T09:59:48.003Z,60.90
2022-09-22T10:02:15.946Z,61.98
2022-09-22T10:04:51.032Z,60.04
2022-09-22T10:07:24.577Z,61.69
2022-09-22T10:09:52.383Z,60.85
2022-09-22T10:12:27.640Z,60.10
2022-09-22T10:15:00.111Z,61.65
2022-09-22T10:17:41.478Z,59.09
2022-09-22T10:20:23.090Z,58.67
2022-09-22T10:22:49.817Z,60.24
2022-09-22T10:25:24.038Z,60.67
2022-09-22T10:28:14.747Z,59.27
2022-09-22T10:30:41.655Z,60.44
2022-09-22T10:33:21.477Z,59.33
2022-09-22T10:36:12.421Z,58.46
2022-09-22T10:38:41.477Z,60.11
2022-09-22T10:41:17.816Z,60.54
2022-09-22T10:43:52.114Z,59.45
2022-09-22T10:46:49.867Z,55.05
2022-09-22T10:49:40.940Z,57.65
2022-09-22T10:52:30.777Z,55.73
2022-09-22T10:55:14.797Z,59.38
2022-09-22T10:58:16.947Z,58.24
2022-09-22T11:00:44.004Z,57.15
2022-09-22T11:03:40.610Z,56.74
2022-09-22T11:06:37.828Z,53.36
2022-09-22T11:09:43.951Z,54.22
2022-09-22T11:12:51.124Z,53.08
2022-09-22T11:15:20.558Z,54.15
2022-09-22T11:18:08.156Z,56.60
2022-09-22T11:20:38.599Z,56.53
2022-09-22T11:23:22.916Z,55.61
2022-09-22T11:26:01.824Z,53.89
2022-09-22T11:28:34.251Z,55.45
2022-09-22T11:31:00.808Z,53.88
2022-09-22T11:33:40.275Z,52.57
2022-09-22T11:36:51.922Z,55.17
2022-09-22T11:39:36.831Z,54.46
2022-09-22T11:42:27.005Z,53.36
2022-09-22T11:45:15.612Z,53.37
2022-09-22T11:47:47.808Z,54.42
2022-09-22T11:50:16.902Z,53.96
2022-09-22T11:53:20.934Z,54.08
2022-09-22T11:55:56.748Z,53.48
2022-09-22T11:58:28.848Z,53.80
2022-09-22T12:01:05.467Z,53.77
2022-09-22T12:03:40.191Z,54.49
2022-09-22T12:06:12.557Z,55.60
2022-09-22T12:09:03.477Z,55.67
2022-09-22T12:11:35.998Z,55.54
2022-09-22T12:14:03.524Z,54.81
2022-09-22T12:16:42.599Z,52.85
2022-09-22T12:19:37.235Z,52.99
2022-09-22T12:22:37.322Z,52.51
2022-09-22T12:25:04.040Z,52.24
2022-09-22T12:27:30.473Z,52.64
2022-09-22T12:30:13.384Z,52.45
2022-09-22T12:32:42.859Z,51.39
2022-09-22T12:35:31.411Z,50.62
2022-09-22T12:38:02.107Z,52.01
2022-09-22T12:40:31.090Z,51.16
2022-09-22T12:42:59.298Z,51.53
2022-09-22T12:45:42.484Z,51.64
2022-09-22T12:48:16.514Z,50.68
2022-09-22T12:50:44.891Z,52.03
2022-09-22T12:53:21.485Z,51.96
2022-09-22T12:55:52.637Z,55.40
2022-09-22T12:58:19.293Z,54.59
2022-09-22T13:00:46.769Z,52.78
2022-09-22T13:03:25.591Z,55.05
2022-09-22T13:05:56.365Z,54.49
2022-09-22T13:08:25.736Z,54.09
2022-09-22T13:10:55.214Z,51.17
2022-09-22T13:13:39.875Z,48.41
2022-09-22T13:16:15.489Z,50.40
2022-09-22T13:18:58.707Z,50.23
2022-09-22T13:21:28.249Z,53.90
2022-09-22T13:23:54.595Z,55.15
2022-09-22T13:26:38.804Z,48.62
2022-09-22T13:29:20.366Z,48.91
2022-09-22T13:31:52.760Z,52.91
2022-09-22T13:34:35.956Z,50.76
2022-09-22T13:37:13.556Z,49.67
2022-09-22T13:39:47.171Z,49.79
2022-09-22T13:42:19.296Z,51.05
2022-09-22T13:44:49.561Z,51.86
2022-09-22T13:50:22.085Z,50.80
2022-09-22T13:52:51.259Z,50.14
2022-09-22T13:55:33.230Z,49.22
2022-09-22T13:58:00.907Z,49.69
2022-09-22T14:00:31.506Z,52.24
2022-09-22T14:03:00.799Z,50.88
2022-09-22T14:05:31.834Z,52.19
2022-09-22T14:08:12.105Z,51.07
2022-09-22T14:10:41.999Z,50.58
2022-09-22T14:13:44.083Z,49.68
2022-09-22T14:16:17.207Z,49.63
2022-09-22T14:18:47.692Z,52.33
2022-09-22T14:21:14.497Z,50.04
2022-09-22T14:23:47.404Z,51.84
2022-09-22T14:26:27.886Z,49.66
2022-09-22T14:28:59.001Z,49.47
2022-09-22T14:31:29.252Z,50.61
2022-09-22T14:33:56.591Z,50.49
2022-09-22T14:36:25.863Z,51.03
2022-09-22T14:39:09.503Z,49.85
2022-09-22T14:41:37.513Z,50.85
2022-09-22T14:44:37.799Z,48.40
2022-09-22T14:47:40.803Z,53.09
2022-09-22T14:50:13.576Z,50.67
2022-09-22T14:52:48.670Z,49.88
2022-09-22T14:55:34.366Z,49.60
2022-09-22T14:58:05.383Z,50.14
2022-09-22T15:00:50.977Z,50.66
2022-09-22T15:03:21.575Z,49.83
2022-09-22T15:05:50.145Z,49.92
2022-09-22T15:08:21.443Z,50.16
2022-09-22T15:10:58.335Z,50.29
2022-09-22T15:13:46.199Z,52.29
2022-09-22T15:16:37.664Z,49.20
2022-09-22T15:19:04.940Z,50.46
2022-09-22T15:21:37.084Z,49.21
2022-09-22T15:24:05.201Z,51.58
2022-09-22T15:26:35.081Z,52.46
2022-09-22T15:29:02.614Z,51.15
2022-09-22T15:31:29.865Z,50.10
2022-09-22T15:33:59.976Z,49.82
2022-09-22T15:36:31.783Z,51.88
2022-09-22T15:39:13.786Z,50.15
2022-09-22T15:41:40.209Z,49.11
2022-09-22T15:44:08.576Z,48.81
2022-09-22T15:46:37.586Z,49.15
2022-09-22T15:49:14.953Z,49.66
2022-09-22T15:51:41.381Z,49.03
2022-09-22T15:54:14.267Z,48.36
2022-09-22T15:56:41.821Z,49.92
2022-09-22T15:59:19.699Z,49.56
2022-09-22T16:01:46.572Z,49.25
2022-09-22T16:04:13.022Z,49.42
2022-09-22T16:06:48.049Z,49.61
2022-09-22T16:09:17.187Z,50.00
2022-09-22T16:11:43.785Z,50.25
2022-09-22T16:14:11.535Z,50.16
2022-09-22T16:16:38.741Z,50.00
2022-09-22T16:19:09.296Z,50.31
2022-09-22T16:21:38.671Z,50.71
2022-09-22T16:24:08.286Z,50.66
2022-09-22T16:26:36.880Z,50.27
2022-09-22T16:29:04.583Z,50.40
2022-09-22T16:31:31.341Z,50.80
2022-09-22T16:34:01.316Z,51.32
2022-09-22T16:36:31.533Z,51.68
2022-09-22T16:38:57.940Z,51.19
2022-09-22T16:41:29.294Z,51.35
2022-09-22T16:43:57.085Z,51.32
2022-09-22T16:46:28.597Z,51.55
2022-09-22T16:49:17.148Z,52.37
2022-09-22T16:51:48.696Z,52.74
2022-09-22T16:54:15.993Z,52.69
2022-09-22T16:56:45.976Z,52.88
2022-09-22T16:59:16.161Z,53.07
2022-09-22T17:01:43.910Z,53.50
2022-09-22T17:04:13.118Z,53.29
2022-09-22T17:06:41.547Z,53.58
2022-09-22T17:09:09.070Z,53.89
2022-09-22T17:11:39.088Z,54.16
2022-09-22T17:14:12.219Z,54.34
2022-09-22T17:16:43.000Z,54.55
2022-09-22T17:19:11.765Z,54.77
2022-09-22T17:21:40.116Z,55.04
2022-09-22T17:24:09.302Z,55.11
2022-09-22T17:26:37.755Z,55.37
2022-09-22T17:29:06.415Z,55.44
2022-09-22T17:31:34.694Z,55.83
2022-09-22T17:34:01.776Z,56.40
2022-09-22T17:36:28.973Z,56.70
2022-09-22T17:38:58.056Z,57.12
2022-09-22T17:41:33.370Z,57.26
2022-09-22T17:44:02.899Z,58.04
2022-09-22T17:46:31.767Z,58.44
2022-09-22T17:49:17.068Z,58.60
2022-09-22T17:52:03.202Z,59.02
2022-09-22T17:54:58.672Z,59.72
2022-09-22T17:57:30.723Z,59.90
2022-09-22T17:59:58.161Z,59.89
2022-09-22T18:02:32.238Z,60.20
2022-09-22T18:04:58.714Z,60.72
2022-09-22T18:07:26.677Z,60.90
2022-09-22T18:09:55.407Z,61.81
2022-09-22T18:12:24.586Z,62.31
2022-09-22T18:14:53.035Z,63.03
2022-09-22T18:17:22.834Z,62.77
2022-09-22T18:19:49.342Z,62.47
2022-09-22T18:22:21.153Z,62.72
2022-09-22T18:24:55.072Z,62.58
2022-09-22T18:27:28.296Z,63.09
2022-09-22T18:29:58.450Z,63.50
2022-09-22T18:32:28.103Z,66.85
2022-09-22T18:34:55.235Z,66.79
2022-09-22T18:37:23.202Z,68.32
2022-09-22T18:39:50.463Z,70.41
2022-09-22T18:42:22.686Z,70.13
2022-09-22T18:44:49.097Z,71.30
2022-09-22T18:47:18.425Z,70.85
2022-09-22T18:49:48.073Z,69.23
2022-09-22T18:52:16.170Z,70.28
2022-09-22T18:54:43.802Z,70.13
2022-09-22T18:57:14.060Z,70.22
2022-09-22T18:59:41.212Z,70.45
2022-09-22T19:02:11.818Z,71.74
2022-09-22T19:04:38.850Z,70.32
2022-09-22T19:07:23.979Z,69.27
2022-09-22T19:09:52.331Z,68.87
2022-09-22T19:12:20.348Z,69.20
2022-09-22T19:14:48.081Z,68.98
2022-09-22T19:17:17.160Z,68.86
2022-09-22T19:19:46.582Z,69.17
2022-09-22T19:22:13.002Z,68.52
2022-09-22T19:24:41.245Z,69.46
2022-09-22T19:27:09.116Z,69.64
2022-09-22T19:29:35.937Z,70.15
2022-09-22T19:32:03.526Z,70.69
2022-09-22T19:34:30.455Z,71.32
2022-09-22T19:36:58.229Z,70.86
2022-09-22T19:39:25.443Z,70.80
2022-09-22T19:41:52.502Z,70.86
2022-09-22T19:44:22.136Z,71.10
2022-09-22T19:46:49.291Z,71.74
2022-09-22T19:49:16.608Z,72.58
2022-09-22T19:51:43.130Z,72.81
2022-09-22T19:54:10.352Z,73.26
2022-09-22T19:56:37.126Z,73.84
2022-09-22T19:59:07.424Z,74.06
2022-09-22T20:01:37.739Z,74.69
2022-09-22T20:04:05.427Z,74.99
2022-09-22T20:06:33.394Z,74.85
2022-09-22T20:09:02.839Z,75.12
2022-09-22T20:11:34.901Z,75.50
2022-09-22T20:14:19.988Z,76.19
2022-09-22T20:16:51.211Z,77.03
2022-09-22T20:19:17.938Z,77.91
2022-09-22T20:21:45.683Z,78.33
2022-09-22T20:24:15.206Z,78.67
2022-09-22T20:26:43.289Z,79.28
2022-09-22T20:29:10.595Z,79.62
2022-09-22T20:31:37.580Z,80.73
2022-09-22T20:34:07.607Z,80.59
2022-09-22T20:36:37.101Z,80.54
2022-09-22T20:39:05.588Z,80.76
2022-09-22T20:41:32.608Z,81.17
2022-09-22T20:43:59.246Z,80.94
2022-09-22T20:46:25.843Z,81.05
2022-09-22T20:48:55.300Z,81.67
2022-09-22T20:51:23.210Z,81.32
2022-09-22T20:53:49.695Z,81.09
2022-09-22T20:56:16.198Z,81.14
2022-09-22T20:58:44.972Z,80.94
2022-09-22T21:01:14.567Z,81.09
2022-09-22T21:03:41.096Z,81.16
2022-09-22T21:06:09.615Z,82.02
2022-09-22T21:09:01.157Z,82.22
2022-09-22T21:11:28.440Z,81.97
2022-09-22T21:14:01.109Z,82.25
2022-09-22T21:16:31.561Z,82.62
2022-09-22T21:19:02.392Z,83.12
2022-09-22T21:21:33.751Z,83.58
2022-09-22T21:24:02.959Z,84.02
2022-09-22T21:26:30.915Z,85.82
2022-09-22T21:28:58.314Z,87.06
2022-09-22T21:31:25.489Z,87.15
2022-09-22T21:33:52.173Z,86.68
2022-09-22T21:36:20.987Z,86.86
2022-09-22T21:38:49.084Z,87.91
2022-09-22T21:41:21.110Z,87.15
2022-09-22T21:43:49.901Z,87.47
2022-09-22T21:46:22.138Z,87.86
2022-09-22T21:48:48.714Z,88.40
2022-09-22T21:51:19.482Z,88.79
2022-09-22T21:53:47.971Z,89.23
2022-09-22T21:56:16.369Z,88.81
2022-09-22T21:58:45.598Z,89.16
2022-09-22T22:01:32.645Z,90.24
2022-09-22T22:04:00.768Z,89.54
2022-09-22T22:06:29.885Z,89.86
2022-09-22T22:09:07.888Z,90.33
2022-09-22T22:11:36.892Z,89.85
2022-09-22T22:14:05.854Z,90.15
2022-09-22T22:16:35.248Z,89.73
2022-09-22T22:19:02.037Z,90.95
2022-09-22T22:21:30.009Z,91.66
2022-09-22T22:24:19.275Z,92.29
2022-09-22T22:26:51.669Z,92.66
2022-09-22T22:29:19.713Z,93.09
2022-09-22T22:31:48.883Z,94.22
2022-09-22T22:34:17.094Z,93.97
2022-09-22T22:36:44.150Z,94.07
2022-09-22T22:39:11.306Z,94.02
2022-09-22T22:41:39.224Z,95.19
2022-09-22T22:44:07.104Z,96.24
2022-09-22T22:46:34.540Z,96.32
2022-09-22T22:49:01.064Z,96.45
2022-09-22T22:51:28.610Z,96.03
2022-09-22T22:53:55.727Z,96.35
2022-09-22T22:56:24.838Z,98.31
2022-09-22T22:58:51.784Z,99.11
2022-09-22T23:01:23.524Z,99.10
2022-09-22T23:03:52.792Z,98.70
2022-09-22T23:06:35.710Z,99.76
2022-09-22T23:09:03.936Z,100.00
2022-09-22T23:11:37.051Z,100.00
2022-09-22T23:14:06.093Z,100.00
2022-09-22T23:16:35.193Z,99.90
2022-09-22T23:19:06.077Z,100.00
2022-09-22T23:21:32.546Z,100.00
2022-09-22T23:24:00.865Z,100.00
2022-09-22T23:26:29.077Z,100.00
2022-09-22T23:28:58.487Z,99.75
2022-09-22T23:31:25.977Z,99.91
2022-09-22T23:33:54.175Z,100.00
2022-09-22T23:36:26.149Z,100.00
2022-09-22T23:38:54.162Z,100.00
2022-09-22T23:41:20.662Z,100.00
2022-09-22T23:43:47.082Z,100.00
2022-09-22T23:46:13.564Z,100.00
2022-09-22T23:48:40.191Z,100.00
2022-09-22T23:51:06.914Z,100.00
2022-09-22T23:53:37.202Z,100.00
2022-09-22T23:56:05.594Z,100.00
2022-09-22T23:58:32.877Z,100.00
